createdAt,value
2023-05-07T00:02:40.944Z,93.15
2023-05-07T00:04:42.162Z,93.25
2023-05-07T00:08:44.982Z,93.31
2023-05-07T00:12:47.898Z,93.47
2023-05-07T00:14:48.879Z,93.39
2023-05-07T00:18:51.684Z,93.48
2023-05-07T00:20:52.647Z,93.47
2023-05-07T00:24:55.144Z,93.45
2023-05-07T00:28:57.533Z,93.3
2023-05-07T00:30:59.388Z,93.33
2023-05-07T00:35:02.556Z,93.81
2023-05-07T00:39:05.476Z,94.42
2023-05-07T00:41:06.565Z,94.43
2023-05-07T00:45:09.650Z,94.48
2023-05-07T00:47:10.599Z,94.57
2023-05-07T00:49:55.670Z,94.62
2023-05-07T00:51:56.724Z,94.43
2023-05-07T00:53:58.167Z,94.45
2023-05-07T00:55:59.524Z,94.47
2023-05-07T00:58:00.579Z,94.63
2023-05-07T01:02:03.661Z,94.77
2023-05-07T01:04:05.315Z,94.79
2023-05-07T01:06:07.169Z,94.92
2023-05-07T01:08:08.287Z,94.93
2023-05-07T01:12:10.334Z,94.8
2023-05-07T01:14:11.417Z,95.05
2023-05-07T01:18:14.064Z,94.42
2023-05-07T01:22:17.381Z,94.9
2023-05-07T01:24:18.379Z,94.75
2023-05-07T01:28:21.184Z,94.95
2023-05-07T01:32:24.321Z,95.03
2023-05-07T01:34:25.923Z,95.09
2023-05-07T01:38:28.989Z,95.66
2023-05-07T01:40:30.523Z,95.59
2023-05-07T01:44:33.531Z,95.72
2023-05-07T01:48:36.309Z,96.12
2023-05-07T01:50:37.793Z,96.18
2023-05-07T01:54:40.788Z,96.15
2023-05-07T01:56:42.661Z,96.13
2023-05-07T02:00:45.160Z,96.08
2023-05-07T02:04:47.696Z,96.04
2023-05-07T02:06:49.278Z,96.05
2023-05-07T02:10:51.995Z,96.1
2023-05-07T02:14:54.865Z,96.2
2023-05-07T02:16:56.579Z,96.34
2023-05-07T02:20:59.559Z,96.55
2023-05-07T02:23:01.322Z,96.59
2023-05-07T02:27:04.681Z,96.65
2023-05-07T02:31:07.348Z,96.96
2023-05-07T02:33:08.655Z,96.86
2023-05-07T02:37:10.584Z,96.82
2023-05-07T02:39:12.127Z,96.77
2023-05-07T02:43:15.123Z,96.67
2023-05-07T02:47:18.112Z,96.98
2023-05-07T02:49:19.784Z,97.11
2023-05-07T02:53:23.054Z,97.04
2023-05-07T02:57:25.803Z,97.01
2023-05-07T02:59:27.221Z,97.04
2023-05-07T03:03:30.044Z,97.04
2023-05-07T03:05:31.010Z,96.98
2023-05-07T03:09:33.915Z,96.86
2023-05-07T03:13:36.700Z,97.14
2023-05-07T03:15:37.969Z,97.16
2023-05-07T03:19:40.406Z,97.37
2023-05-07T03:21:41.488Z,97.34
2023-05-07T03:25:44.110Z,97.33
2023-05-07T03:29:47.138Z,97.44
2023-05-07T03:31:49.028Z,97.44
2023-05-07T03:35:51.481Z,97.44
2023-05-07T03:39:54.469Z,97.44
2023-05-07T03:41:55.856Z,97.58
2023-05-07T03:45:58.818Z,97.78
2023-05-07T03:48:00.028Z,97.76
2023-05-07T03:52:02.935Z,97.87
2023-05-07T03:56:04.954Z,97.81
2023-05-07T03:58:06.596Z,97.79
2023-05-07T04:02:09.921Z,97.75
2023-05-07T04:04:11.109Z,97.71
2023-05-07T04:08:13.791Z,97.66
2023-05-07T04:10:14.754Z,97.83
2023-05-07T04:14:18.554Z,97.87
2023-05-07T04:18:20.892Z,97.71
2023-05-07T04:20:22.270Z,97.71
2023-05-07T04:24:25.060Z,97.71
2023-05-07T04:28:27.606Z,97.66
2023-05-07T04:30:29.376Z,97.56
2023-05-07T04:34:32.125Z,97.13
2023-05-07T04:36:32.987Z,97.07
2023-05-07T04:40:37.111Z,97.2
2023-05-07T04:44:39.801Z,97.24
2023-05-07T04:46:41.093Z,97.24
2023-05-07T04:50:44.618Z,97.26
2023-05-07T04:52:46.253Z,97.17
2023-05-07T04:56:48.805Z,97.2
2023-05-07T05:00:51.463Z,97.07
2023-05-07T05:02:52.669Z,96.66
2023-05-07T05:07:04.647Z,96.71
2023-05-07T05:10:59.514Z,96.6
2023-05-07T05:13:04.830Z,96.47
2023-05-07T05:17:02.954Z,96.43
2023-05-07T05:19:04.873Z,96.38
2023-05-07T05:23:06.161Z,96.1
2023-05-07T05:27:08.316Z,96.05
2023-05-07T05:29:09.795Z,96.01
2023-05-07T05:33:12.947Z,95.83
2023-05-07T05:35:14.869Z,95.86
2023-05-07T05:39:17.316Z,95.73
2023-05-07T05:43:20.298Z,95.37
2023-05-07T05:45:21.801Z,95.16
2023-05-07T05:49:25.983Z,94.72
2023-05-07T05:51:26.572Z,94.44
2023-05-07T05:55:31.018Z,93.85
2023-05-07T05:59:32.840Z,93.66
2023-05-07T06:01:35.060Z,93.62
2023-05-07T06:05:37.034Z,92.76
2023-05-07T06:09:38.585Z,91.88
2023-05-07T06:11:39.690Z,91.4
2023-05-07T06:15:42.021Z,91.59
2023-05-07T06:17:43.834Z,91.12
2023-05-07T06:21:46.326Z,90.15
2023-05-07T06:25:49.203Z,89.68
2023-05-07T06:27:50.925Z,89.99
2023-05-07T06:31:53.911Z,88.73
2023-05-07T06:33:55.732Z,89.31
2023-05-07T06:37:58.084Z,87.6
2023-05-07T06:42:00.604Z,86.38
2023-05-07T06:44:01.467Z,86.09
2023-05-07T06:48:04.200Z,86.01
2023-05-07T06:52:06.883Z,85.3
2023-05-07T06:54:08.578Z,85.07
2023-05-07T06:58:11.246Z,84.49
2023-05-07T07:00:13.205Z,85.45
2023-05-07T07:04:15.057Z,83.14
2023-05-07T07:08:17.619Z,82.99
2023-05-07T07:10:18.465Z,82.69
2023-05-07T07:14:21.379Z,84.14
2023-05-07T07:16:23.108Z,84.16
2023-05-07T07:20:25.768Z,81.61
2023-05-07T07:24:28.346Z,82.55
2023-05-07T07:26:29.667Z,82.51
2023-05-07T07:30:32.632Z,82.3
2023-05-07T07:35:18.677Z,82.3
2023-05-07T07:37:20.382Z,82.2
2023-05-07T07:41:22.856Z,81.21
2023-05-07T07:45:26.006Z,80.67
2023-05-07T07:47:27.084Z,80.2
2023-05-07T07:51:29.515Z,82.04
2023-05-07T07:53:30.669Z,81.28
2023-05-07T07:57:32.511Z,80.46
2023-05-07T08:01:34.735Z,81.13
2023-05-07T08:03:36.091Z,77.45
2023-05-07T08:07:38.427Z,80.19
2023-05-07T08:09:39.303Z,78.69
2023-05-07T08:13:42.671Z,78.92
2023-05-07T08:17:45.899Z,80.14
2023-05-07T08:19:47.469Z,79.78
2023-05-07T08:23:50.337Z,78
2023-05-07T08:27:52.843Z,77.34
2023-05-07T08:29:53.751Z,77.62
2023-05-07T08:33:56.881Z,78.49
2023-05-07T08:35:58.412Z,73.25
2023-05-07T08:40:00.445Z,75.41
2023-05-07T08:44:02.955Z,73.59
2023-05-07T08:46:04.458Z,76.57
2023-05-07T08:50:07.389Z,74.57
2023-05-07T08:52:10.055Z,71.97
2023-05-07T08:56:11.675Z,70.92
2023-05-07T09:00:14.171Z,71.54
2023-05-07T09:02:15.970Z,71.89
2023-05-07T09:06:19.253Z,71.92
2023-05-07T09:10:21.700Z,70.27
2023-05-07T09:12:23.274Z,69.84
2023-05-07T09:16:26.788Z,70.05
2023-05-07T09:18:27.983Z,66.5
2023-05-07T09:20:29.105Z,68.8
2023-05-07T09:22:30.591Z,65.99
2023-05-07T09:26:33.029Z,65.9
2023-05-07T09:28:34.372Z,70.59
2023-05-07T09:30:35.664Z,68.8
2023-05-07T09:32:36.843Z,68.29
2023-05-07T09:34:38.499Z,69.35
2023-05-07T09:38:41.723Z,67.52
2023-05-07T09:42:44.278Z,68.27
2023-05-07T09:44:45.580Z,68.71
2023-05-07T09:48:48.570Z,65.89
2023-05-07T09:54:52.236Z,68.55
2023-05-07T09:58:54.307Z,68.59
2023-05-07T10:00:55.485Z,64.1
2023-05-07T10:04:57.313Z,64.48
2023-05-07T10:08:59.711Z,61.54
2023-05-07T10:11:00.774Z,61.05
2023-05-07T10:15:03.348Z,65.76
2023-05-07T10:17:04.952Z,63
2023-05-07T10:21:07.121Z,64.92
2023-05-07T10:25:09.128Z,61.02
2023-05-07T10:27:10.074Z,61.08
2023-05-07T10:31:12.813Z,63.85
2023-05-07T10:33:13.757Z,62.22
2023-05-07T10:37:15.806Z,62.02
2023-05-07T10:41:18.406Z,63.14
2023-05-07T10:43:19.762Z,62.95
2023-05-07T10:47:22.941Z,61.93
2023-05-07T10:51:26.127Z,64.62
2023-05-07T10:53:27.759Z,64.73
2023-05-07T10:57:29.607Z,66.92
2023-05-07T10:59:31.065Z,63.8
2023-05-07T11:01:32.582Z,61.93
2023-05-07T11:03:33.877Z,61.7
2023-05-07T11:07:35.950Z,65.71
2023-05-07T11:09:36.985Z,62.48
2023-05-07T11:11:38.633Z,63.45
2023-05-07T11:13:39.505Z,61.56
2023-05-07T11:15:40.287Z,64.5
2023-05-07T11:19:43.529Z,61.61
2023-05-07T11:21:45.203Z,63.83
2023-05-07T11:23:46.239Z,61.16
2023-05-07T11:25:47.527Z,61.76
2023-05-07T11:29:50.064Z,60.92
2023-05-07T11:31:51.453Z,60.89
2023-05-07T11:35:53.680Z,63.74
2023-05-07T11:39:56.534Z,61.55
2023-05-07T11:41:58.305Z,62.4
2023-05-07T11:46:01.184Z,61.09
2023-05-07T11:50:03.738Z,60.79
2023-05-07T11:52:06.518Z,59.47
2023-05-07T11:56:07.609Z,63.45
2023-05-07T11:58:10.197Z,64.32
2023-05-07T12:02:10.807Z,60.24
2023-05-07T12:06:12.716Z,64.67
2023-05-07T12:08:13.584Z,60.78
2023-05-07T12:12:15.637Z,59.54
2023-05-07T12:14:16.526Z,57.47
2023-05-07T12:18:18.975Z,59.54
2023-05-07T12:22:21.438Z,60.88
2023-05-07T12:24:23.591Z,61.75
2023-05-07T12:28:25.752Z,56.27
2023-05-07T12:32:28.234Z,59.52
2023-05-07T12:34:29.240Z,57.9
2023-05-07T12:38:32.211Z,56.87
2023-05-07T12:40:33.202Z,60.45
2023-05-07T12:42:34.697Z,58.22
2023-05-07T12:44:35.736Z,58.97
2023-05-07T12:48:38.335Z,56.2
2023-05-07T12:50:39.656Z,57.6
2023-05-07T12:54:41.371Z,55.71
2023-05-07T12:56:42.298Z,53.21
2023-05-07T13:00:44.979Z,57.93
2023-05-07T13:04:47.869Z,55.4
2023-05-07T13:06:48.897Z,58.66
2023-05-07T13:10:51.236Z,57.29
2023-05-07T13:12:52.836Z,54.81
2023-05-07T13:16:54.515Z,54.38
2023-05-07T13:20:57.139Z,52.78
2023-05-07T13:22:58.154Z,53.75
2023-05-07T13:27:02.014Z,51.33
2023-05-07T13:31:04.527Z,53.13
2023-05-07T13:33:06.102Z,56.26
2023-05-07T13:37:11.151Z,54.49
2023-05-07T13:39:09.044Z,55.6
2023-05-07T13:43:11.787Z,54.27
2023-05-07T13:47:14.735Z,50.83
2023-05-07T13:49:15.784Z,50.88
2023-05-07T13:53:17.514Z,51.98
2023-05-07T13:55:18.996Z,52.54
2023-05-07T13:59:20.890Z,55.36
2023-05-07T14:03:23.889Z,50.98
2023-05-07T14:05:25.260Z,51.56
2023-05-07T14:09:27.531Z,50.75
2023-05-07T14:15:31.579Z,53.22
2023-05-07T14:20:17.781Z,54.35
2023-05-07T14:24:31.061Z,53.93
2023-05-07T14:26:21.850Z,57.85
2023-05-07T14:30:24.814Z,54.13
2023-05-07T14:32:26.008Z,53.07
2023-05-07T14:36:27.994Z,51.82
2023-05-07T14:40:31.352Z,56.99
2023-05-07T14:42:32.115Z,54.72
2023-05-07T14:46:34.846Z,53.44
2023-05-07T14:48:36.321Z,53.64
2023-05-07T14:52:39.003Z,56.91
2023-05-07T14:56:41.693Z,57.26
2023-05-07T14:58:43.238Z,55.51
2023-05-07T15:02:46.305Z,55.67
2023-05-07T15:06:48.312Z,53.64
2023-05-07T15:08:49.460Z,56.27
2023-05-07T15:12:51.756Z,54.81
2023-05-07T15:14:52.982Z,56.38
2023-05-07T15:18:55.698Z,55.21
2023-05-07T15:22:58.464Z,57.27
2023-05-07T15:24:59.503Z,56.19
2023-05-07T15:29:02.271Z,58.64
2023-05-07T15:31:03.830Z,58.59
2023-05-07T15:35:06.168Z,58.85
2023-05-07T15:39:08.811Z,57.85
2023-05-07T15:41:10.137Z,58.82
2023-05-07T15:45:12.924Z,59.89
2023-05-07T15:47:14.011Z,58.38
2023-05-07T15:51:16.782Z,59.33
2023-05-07T15:55:19.213Z,58.88
2023-05-07T15:57:20.405Z,59.7
2023-05-07T16:01:24.707Z,60.34
2023-05-07T16:05:24.564Z,61.12
2023-05-07T16:07:25.854Z,60.35
2023-05-07T16:11:27.998Z,61.71
2023-05-07T16:13:29.517Z,61.83
2023-05-07T16:17:32.110Z,66.29
2023-05-07T16:21:34.843Z,69.76
2023-05-07T16:23:35.996Z,70.55
2023-05-07T16:27:39.206Z,75.37
2023-05-07T16:29:40.166Z,76
2023-05-07T16:33:42.910Z,77.27
2023-05-07T16:37:45.186Z,79.03
2023-05-07T16:39:46.903Z,79.99
2023-05-07T16:43:49.720Z,81.63
2023-05-07T16:47:53.093Z,81.72
2023-05-07T16:49:54.062Z,81.16
2023-05-07T16:53:57.302Z,81.97
2023-05-07T16:55:58.176Z,82.28
2023-05-07T17:00:01.397Z,83.45
2023-05-07T17:04:03.540Z,84.12
2023-05-07T17:06:05.275Z,84.06
2023-05-07T17:10:08.098Z,84.01
2023-05-07T17:12:09.371Z,84.11
2023-05-07T17:16:12.069Z,83.95
2023-05-07T17:20:14.342Z,83.59
2023-05-07T17:22:15.594Z,83.72
2023-05-07T17:26:18.365Z,83.22
2023-05-07T17:32:22.387Z,83.54
2023-05-07T17:36:24.943Z,83.78
2023-05-07T17:38:26.530Z,83.92
2023-05-07T17:40:27.681Z,83.66
2023-05-07T17:42:29.271Z,83.97
2023-05-07T17:46:31.868Z,83.66
2023-05-07T17:48:33.523Z,83.78
2023-05-07T17:52:36.093Z,83.61
2023-05-07T17:54:37.828Z,83.73
2023-05-07T17:58:57.798Z,83.97
2023-05-07T18:02:44.883Z,84.39
2023-05-07T18:04:45.866Z,84.2
2023-05-07T18:08:48.564Z,85.06
2023-05-07T18:10:49.625Z,85.08
2023-05-07T18:14:52.613Z,85.8
2023-05-07T18:18:55.356Z,85.21
2023-05-07T18:20:56.236Z,85.65
2023-05-07T18:24:58.277Z,87.77
2023-05-07T18:29:00.437Z,88.21
2023-05-07T18:31:01.388Z,88.38
2023-05-07T18:35:03.281Z,89.59
2023-05-07T18:37:05.062Z,90.39
2023-05-07T18:41:07.312Z,91.12
2023-05-07T18:45:09.723Z,91.59
2023-05-07T18:47:10.940Z,92.12
2023-05-07T18:51:13.765Z,92.89
2023-05-07T18:53:14.907Z,93.18
2023-05-07T18:57:17.390Z,93.74
2023-05-07T19:01:19.532Z,93.94
2023-05-07T19:03:20.754Z,94.08
2023-05-07T19:07:23.357Z,94.13
2023-05-07T19:09:24.637Z,94.05
2023-05-07T19:13:26.962Z,93.84
2023-05-07T19:17:29.963Z,93.76
2023-05-07T19:19:31.748Z,93.83
2023-05-07T19:23:34.528Z,94.1
2023-05-07T19:27:36.790Z,94.35
2023-05-07T19:29:38.116Z,94.45
2023-05-07T19:33:41.258Z,94.77
2023-05-07T19:35:43.051Z,94.94
2023-05-07T19:39:46.243Z,95.09
2023-05-07T19:43:49.303Z,95.31
2023-05-07T19:45:51.211Z,95.41
2023-05-07T19:49:53.428Z,95.63
2023-05-07T19:51:54.372Z,95.72
2023-05-07T19:55:57.986Z,95.82
2023-05-07T20:00:00.771Z,95.82
2023-05-07T20:02:01.970Z,95.85
2023-05-07T20:06:04.744Z,95.85
2023-05-07T20:10:07.492Z,95.87
2023-05-07T20:12:08.662Z,95.97
2023-05-07T20:16:11.545Z,96.16
2023-05-07T20:18:12.845Z,96.24
2023-05-07T20:22:15.571Z,96.37
2023-05-07T20:26:18.269Z,96.35
2023-05-07T20:28:19.745Z,96.48
2023-05-07T20:32:23.276Z,96.68
2023-05-07T20:34:25.097Z,96.79
2023-05-07T20:38:27.749Z,96.9
2023-05-07T20:42:30.317Z,96.89
2023-05-07T20:44:32.146Z,96.89
2023-05-07T20:48:34.646Z,96.94
2023-05-07T20:52:37.925Z,97.04
2023-05-07T20:54:39.187Z,97.03
2023-05-07T20:58:42.027Z,97
2023-05-07T21:00:43.875Z,96.94
2023-05-07T21:05:31.085Z,96.85
2023-05-07T21:09:34.428Z,96.86
2023-05-07T21:11:35.942Z,96.87
2023-05-07T21:15:38.939Z,97
2023-05-07T21:19:41.313Z,96.99
2023-05-07T21:21:43.046Z,96.93
2023-05-07T21:25:46.224Z,96.83
2023-05-07T21:29:48.153Z,96.83
2023-05-07T21:31:49.776Z,96.83
2023-05-07T21:35:52.359Z,96.85
2023-05-07T21:37:53.917Z,96.87
2023-05-07T21:42:02.317Z,96.89
2023-05-07T21:45:59.576Z,96.81
2023-05-07T21:48:00.541Z,96.81
2023-05-07T21:52:03.758Z,96.79
2023-05-07T21:54:05.632Z,96.8
2023-05-07T21:58:08.208Z,97.1
2023-05-07T22:02:11.000Z,97.23
2023-05-07T22:04:12.740Z,97.26
2023-05-07T22:08:15.143Z,97.34
2023-05-07T22:10:16.999Z,97.47
2023-05-07T22:14:21.126Z,97.51
2023-05-07T22:18:22.315Z,97.48
2023-05-07T22:20:23.604Z,97.55
2023-05-07T22:24:26.429Z,97.59
2023-05-07T22:26:27.826Z,97.55
2023-05-07T22:30:30.664Z,97.55
2023-05-07T22:34:34.112Z,97.58
2023-05-07T22:36:35.439Z,97.69
2023-05-07T22:40:38.721Z,97.78
2023-05-07T22:44:40.666Z,97.8
2023-05-07T22:46:41.952Z,97.9
2023-05-07T22:50:45.345Z,98.02
2023-05-07T22:52:46.361Z,98.1
2023-05-07T22:54:48.065Z,98.09
2023-05-07T22:56:49.152Z,98.09
2023-05-07T23:00:51.862Z,98.07
2023-05-07T23:02:53.774Z,98.14
2023-05-07T23:06:56.620Z,98.17
2023-05-07T23:08:57.681Z,98.18
2023-05-07T23:12:59.960Z,98.24
2023-05-07T23:17:02.616Z,98.28
2023-05-07T23:19:03.520Z,98.29
2023-05-07T23:23:06.380Z,98.31
2023-05-07T23:25:07.644Z,98.33
2023-05-07T23:29:10.686Z,98.32
2023-05-07T23:33:13.518Z,98.37
2023-05-07T23:35:14.468Z,98.37
2023-05-07T23:39:17.314Z,98.36
2023-05-07T23:43:19.453Z,98.48
2023-05-07T23:45:20.941Z,98.5
2023-05-07T23:49:24.029Z,98.52
2023-05-07T23:51:25.259Z,98.5
2023-05-07T23:55:27.933Z,98.52
2023-05-07T23:59:30.368Z,98.49
